createdAt,value
2022-09-12T00:01:19.845Z,10.63
2022-09-12T00:03:48.058Z,10.87
2022-09-12T00:06:22.837Z,10.83
2022-09-12T00:08:51.991Z,11.90
2022-09-12T00:11:19.755Z,10.90
2022-09-12T00:13:47.599Z,10.80
2022-09-12T00:16:21.887Z,11.00
2022-09-12T00:18:49.917Z,12.33
2022-09-12T00:21:18.761Z,11.30
2022-09-12T00:23:46.939Z,10.90
2022-09-12T00:26:15.391Z,10.60
2022-09-12T00:28:43.199Z,10.70
2022-09-12T00:31:15.016Z,10.77
2022-09-12T00:33:43.331Z,11.80
2022-09-12T00:36:15.258Z,11.90
2022-09-12T00:38:43.917Z,10.67
2022-09-12T00:41:20.996Z,10.70
2022-09-12T00:43:55.845Z,11.70
2022-09-12T00:46:39.190Z,12.17
2022-09-12T00:49:18.788Z,12.17
2022-09-12T00:51:50.515Z,12.10
2022-09-12T00:54:22.966Z,11.67
2022-09-12T00:56:54.529Z,11.63
2022-09-12T00:59:27.295Z,10.67
2022-09-12T01:01:55.951Z,12.53
2022-09-12T01:04:27.623Z,11.40
2022-09-12T01:06:58.261Z,11.83
2022-09-12T01:09:26.723Z,12.37
2022-09-12T01:11:55.324Z,12.10
2022-09-12T01:14:23.193Z,12.80
2022-09-12T01:16:51.496Z,12.67
2022-09-12T01:19:35.741Z,11.77
2022-09-12T01:22:21.946Z,11.63
2022-09-12T01:24:52.281Z,12.87
2022-09-12T01:27:57.233Z,11.53
2022-09-12T01:30:45.424Z,12.73
2022-09-12T01:33:28.713Z,11.77
2022-09-12T01:36:02.118Z,14.30
2022-09-12T01:38:43.477Z,14.27
2022-09-12T01:41:32.947Z,15.07
2022-09-12T01:44:12.910Z,12.47
2022-09-12T01:47:01.752Z,12.27
2022-09-12T01:49:35.026Z,12.93
2022-09-12T01:52:18.513Z,15.33
2022-09-12T01:55:20.572Z,13.97
2022-09-12T01:58:09.855Z,12.00
2022-09-12T02:00:52.111Z,12.77
2022-09-12T02:03:27.698Z,12.13
2022-09-12T02:06:08.130Z,13.60
2022-09-12T02:08:44.214Z,12.70
2022-09-12T02:11:12.615Z,11.93
2022-09-12T02:14:04.689Z,13.20
2022-09-12T02:16:37.005Z,13.10
2022-09-12T02:19:13.181Z,12.37
2022-09-12T02:21:45.840Z,13.13
2022-09-12T02:24:14.739Z,13.37
2022-09-12T02:26:52.294Z,13.83
2022-09-12T02:29:19.954Z,13.37
2022-09-12T02:31:52.058Z,12.67
2022-09-12T02:34:39.754Z,14.30
2022-09-12T02:37:25.878Z,14.77
2022-09-12T02:39:57.738Z,14.33
2022-09-12T02:42:26.019Z,13.23
2022-09-12T02:44:55.967Z,14.83
2022-09-12T02:47:26.770Z,15.03
2022-09-12T02:49:55.383Z,14.93
2022-09-12T02:52:23.134Z,13.77
2022-09-12T02:54:51.045Z,14.07
2022-09-12T02:57:23.107Z,14.17
2022-09-12T02:59:55.564Z,13.87
2022-09-12T03:02:28.734Z,14.90
2022-09-12T03:04:56.407Z,15.27
2022-09-12T03:07:32.435Z,14.63
2022-09-12T03:10:28.627Z,14.87
2022-09-12T03:13:04.959Z,14.00
2022-09-12T03:16:12.344Z,14.37
2022-09-12T03:18:58.393Z,16.60
2022-09-12T03:21:33.429Z,17.13
2022-09-12T03:24:09.197Z,15.90
2022-09-12T03:26:40.342Z,18.07
2022-09-12T03:29:10.917Z,15.57
2022-09-12T03:31:52.137Z,16.60
2022-09-12T03:34:21.509Z,15.73
2022-09-12T03:36:50.239Z,16.40
2022-09-12T03:39:18.180Z,15.93
2022-09-12T03:41:52.305Z,16.23
2022-09-12T03:44:20.474Z,14.97
2022-09-12T03:46:48.214Z,15.37
2022-09-12T03:49:15.838Z,16.17
2022-09-12T03:51:43.804Z,17.47
2022-09-12T03:54:11.648Z,14.90
2022-09-12T03:56:41.051Z,15.03
2022-09-12T03:59:08.701Z,15.93
2022-09-12T04:01:37.776Z,16.43
2022-09-12T04:04:05.314Z,15.40
2022-09-12T04:06:32.949Z,18.50
2022-09-12T04:09:00.743Z,17.50
2022-09-12T04:11:28.369Z,17.17
2022-09-12T04:13:55.958Z,19.60
2022-09-12T04:16:23.539Z,18.93
2022-09-12T04:18:51.532Z,19.90
2022-09-12T04:21:21.835Z,20.17
2022-09-12T04:23:53.114Z,19.63
2022-09-12T04:26:23.144Z,20.53
2022-09-12T04:28:55.020Z,17.73
2022-09-12T04:31:23.879Z,18.83
2022-09-12T04:33:58.813Z,17.70
2022-09-12T04:36:29.835Z,20.07
2022-09-12T04:38:58.608Z,17.73
2022-09-12T04:41:34.791Z,19.07
2022-09-12T04:44:05.810Z,20.07
2022-09-12T04:46:36.577Z,19.57
2022-09-12T04:49:04.799Z,16.07
2022-09-12T04:51:35.896Z,18.53
2022-09-12T04:54:06.739Z,18.90
2022-09-12T04:56:39.403Z,22.87
2022-09-12T04:59:08.625Z,17.23
2022-09-12T05:01:36.370Z,16.50
2022-09-12T05:04:04.270Z,19.13
2022-09-12T05:06:36.736Z,18.00
2022-09-12T05:09:06.573Z,17.00
2022-09-12T05:12:03.260Z,30.50
2022-09-12T05:15:13.259Z,22.17
2022-09-12T05:23:10.763Z,19.13
2022-09-12T05:45:29.248Z,18.20
2022-09-12T05:47:59.736Z,16.97
2022-09-12T05:50:39.920Z,16.90
2022-09-12T05:53:08.533Z,16.53
2022-09-12T05:55:36.762Z,17.07
2022-09-12T05:58:04.353Z,16.50
2022-09-12T06:01:00.281Z,20.63
2022-09-12T06:04:05.021Z,17.57
2022-09-12T06:07:13.427Z,17.77
2022-09-12T06:09:41.299Z,15.53
2022-09-12T06:12:09.366Z,16.43
2022-09-12T06:14:57.452Z,18.13
2022-09-12T06:17:42.097Z,16.87
2022-09-12T06:20:20.756Z,15.20
2022-09-12T06:23:11.832Z,18.07
2022-09-12T06:25:59.618Z,14.27
2022-09-12T06:29:10.088Z,13.93
2022-09-12T06:32:07.293Z,14.93
2022-09-12T06:34:40.964Z,15.43
2022-09-12T06:37:16.441Z,14.67
2022-09-12T06:39:52.062Z,13.83
2022-09-12T06:42:24.862Z,14.00
2022-09-12T06:44:56.699Z,15.10
2022-09-12T06:47:24.547Z,17.70
2022-09-12T06:49:56.331Z,18.53
2022-09-12T06:52:26.100Z,18.00
2022-09-12T06:54:56.016Z,16.40
2022-09-12T06:57:25.066Z,17.23
2022-09-12T06:59:53.220Z,18.33
2022-09-12T07:02:20.830Z,16.00
2022-09-12T07:04:57.456Z,15.10
2022-09-12T07:07:31.202Z,17.73
2022-09-12T07:10:06.367Z,15.33
2022-09-12T07:12:37.010Z,14.23
2022-09-12T07:15:05.217Z,15.83
2022-09-12T07:17:32.912Z,17.10
2022-09-12T07:20:01.069Z,16.13
2022-09-12T07:22:33.496Z,18.73
2022-09-12T07:25:05.138Z,15.60
2022-09-12T07:27:37.895Z,16.43
2022-09-12T07:30:10.161Z,14.80
2022-09-12T07:32:51.039Z,18.17
2022-09-12T07:35:51.357Z,15.87
2022-09-12T07:38:33.576Z,17.27
2022-09-12T07:41:40.245Z,19.40
2022-09-12T07:44:08.006Z,31.13
2022-09-12T07:46:35.632Z,21.00
2022-09-12T07:49:03.302Z,19.53
2022-09-12T07:51:31.829Z,18.63
2022-09-12T07:53:59.488Z,20.10
2022-09-12T07:56:39.108Z,17.77
2022-09-12T07:59:08.505Z,20.00
2022-09-12T08:02:05.220Z,17.77
2022-09-12T08:04:43.250Z,16.83
2022-09-12T08:07:13.716Z,17.67
2022-09-12T08:09:53.002Z,19.13
2022-09-12T08:12:26.709Z,17.60
2022-09-12T08:14:56.576Z,16.97
2022-09-12T08:17:30.517Z,18.37
2022-09-12T08:20:09.497Z,15.83
2022-09-12T08:22:52.959Z,16.37
2022-09-12T08:25:23.062Z,15.53
2022-09-12T08:27:58.982Z,15.40
2022-09-12T08:30:34.571Z,15.55
2022-09-12T08:33:11.285Z,16.10
2022-09-12T08:35:39.121Z,16.10
2022-09-12T08:38:29.904Z,17.08
2022-09-12T08:41:25.535Z,15.02
2022-09-12T08:44:29.103Z,17.30
2022-09-12T08:47:20.528Z,14.95
2022-09-12T08:50:12.576Z,15.13
2022-09-12T08:53:04.547Z,13.35
2022-09-12T08:55:43.911Z,19.00
2022-09-12T08:58:24.358Z,12.38
2022-09-12T09:01:28.023Z,12.88
2022-09-12T09:04:15.023Z,12.55
2022-09-12T09:07:41.880Z,12.95
2022-09-12T09:10:48.624Z,14.02
2022-09-12T09:13:55.844Z,17.42
2022-09-12T09:16:36.306Z,14.55
2022-09-12T09:19:32.507Z,14.25
2022-09-12T09:22:07.011Z,14.50
2022-09-12T09:24:42.249Z,13.20
2022-09-12T09:27:41.939Z,13.68
2022-09-12T09:30:28.838Z,13.65
2022-09-12T09:33:09.894Z,12.85
2022-09-12T09:36:10.805Z,12.95
2022-09-12T09:39:00.851Z,12.18
2022-09-12T09:41:49.826Z,13.38
2022-09-12T09:44:17.988Z,13.43
2022-09-12T09:46:46.297Z,12.77
2022-09-12T09:49:26.972Z,11.45
2022-09-12T09:52:00.818Z,14.52
2022-09-12T09:54:40.677Z,14.45
2022-09-12T09:57:44.689Z,13.32
2022-09-12T10:00:35.323Z,13.50
2022-09-12T10:03:14.881Z,11.75
2022-09-12T10:05:49.870Z,12.13
2022-09-12T10:08:26.425Z,14.52
2022-09-12T10:11:07.019Z,11.43
2022-09-12T10:13:41.256Z,12.65
2022-09-12T10:16:34.997Z,12.77
2022-09-12T10:19:05.327Z,15.00
2022-09-12T10:21:52.914Z,12.65
2022-09-12T10:24:27.779Z,14.05
2022-09-12T10:27:19.423Z,11.95
2022-09-12T10:29:56.975Z,11.50
2022-09-12T10:32:31.324Z,11.18
2022-09-12T10:35:09.170Z,12.60
2022-09-12T10:37:40.051Z,13.35
2022-09-12T10:40:43.334Z,10.60
2022-09-12T10:43:50.492Z,12.20
2022-09-12T10:47:03.270Z,11.55
2022-09-12T10:49:48.772Z,14.30
2022-09-12T10:52:41.219Z,11.13
2022-09-12T10:55:49.819Z,11.98
2022-09-12T10:58:48.137Z,13.05
2022-09-12T11:01:18.774Z,11.23
2022-09-12T11:04:21.670Z,11.20
2022-09-12T11:07:16.786Z,9.70
2022-09-12T11:10:05.502Z,9.38
2022-09-12T11:12:35.958Z,9.77
2022-09-12T11:15:37.936Z,8.85
2022-09-12T11:18:29.523Z,8.90
2022-09-12T11:21:20.518Z,8.52
2022-09-12T11:24:23.361Z,7.75
2022-09-12T11:27:00.237Z,6.75
2022-09-12T11:29:55.591Z,7.28
2022-09-12T11:32:45.372Z,7.55
2022-09-12T11:35:17.631Z,6.80
2022-09-12T11:38:04.822Z,7.30
2022-09-12T11:40:42.133Z,6.45
2022-09-12T11:43:30.183Z,7.38
2022-09-12T11:46:23.912Z,5.60
2022-09-12T11:48:57.405Z,5.13
2022-09-12T11:51:36.672Z,5.20
2022-09-12T11:54:29.604Z,4.57
2022-09-12T11:57:35.816Z,3.72
2022-09-12T12:00:16.098Z,3.40
2022-09-12T12:03:08.496Z,4.68
2022-09-12T12:05:52.132Z,3.88
2022-09-12T12:08:22.088Z,3.30
2022-09-12T12:10:49.925Z,3.88
2022-09-12T12:13:32.146Z,4.63
2022-09-12T12:16:07.280Z,4.47
2022-09-12T12:18:38.956Z,4.28
2022-09-12T12:22:18.758Z,4.00
2022-09-12T12:25:25.252Z,3.83
2022-09-12T12:28:56.167Z,3.60
2022-09-12T12:32:08.939Z,3.85
2022-09-12T12:34:46.290Z,3.38
2022-09-12T12:37:30.273Z,3.25
2022-09-12T12:41:27.532Z,3.40
2022-09-12T12:43:49.025Z,3.45
2022-09-12T12:46:36.079Z,3.60
2022-09-12T12:49:17.063Z,3.63
2022-09-12T12:51:59.073Z,3.85
2022-09-12T12:54:41.879Z,3.00
2022-09-12T12:57:30.689Z,3.58
2022-09-12T13:00:26.675Z,4.20
2022-09-12T13:03:11.504Z,3.53
2022-09-12T13:05:46.912Z,3.35
2022-09-12T13:11:35.036Z,3.63
2022-09-12T13:14:53.784Z,3.60
2022-09-12T13:20:31.653Z,3.35
2022-09-12T13:22:59.477Z,3.60
2022-09-12T13:26:04.686Z,3.53
2022-09-12T13:28:57.688Z,4.10
2022-09-12T13:31:33.890Z,3.38
2022-09-12T13:34:05.657Z,3.35
2022-09-12T13:36:57.482Z,3.20
2022-09-12T13:39:51.807Z,3.22
2022-09-12T13:42:25.990Z,3.17
2022-09-12T13:45:22.121Z,2.90
2022-09-12T13:48:13.515Z,2.72
2022-09-12T13:51:19.204Z,3.00
2022-09-12T13:54:11.834Z,2.80
2022-09-12T13:57:16.692Z,3.10
2022-09-12T14:00:12.880Z,3.15
2022-09-12T14:03:41.599Z,2.88
2022-09-12T14:06:31.370Z,2.35
2022-09-12T14:09:23.033Z,2.10
2022-09-12T14:13:06.784Z,2.50
2022-09-12T14:15:59.690Z,2.85
2022-09-12T14:18:52.677Z,2.33
2022-09-12T14:21:45.302Z,1.90
2022-09-12T14:31:20.732Z,5.10
2022-09-12T14:35:00.437Z,2.45
2022-09-12T14:37:55.372Z,2.28
2022-09-12T14:44:24.096Z,2.10
2022-09-12T14:46:56.862Z,2.60
2022-09-12T14:49:48.753Z,2.00
2022-09-12T14:52:39.529Z,2.20
2022-09-12T14:55:16.246Z,2.33
2022-09-12T14:57:50.843Z,2.08
2022-09-12T15:00:22.209Z,2.15
2022-09-12T15:02:52.097Z,3.67
2022-09-12T15:05:23.598Z,3.08
2022-09-12T15:07:51.125Z,2.70
2022-09-12T15:10:35.078Z,2.50
2022-09-12T15:13:16.521Z,2.30
2022-09-12T15:15:47.054Z,2.55
2022-09-12T15:18:15.335Z,2.33
2022-09-12T15:20:44.708Z,2.80
2022-09-12T15:23:32.873Z,3.00
2022-09-12T15:26:00.785Z,2.65
2022-09-12T15:28:29.941Z,4.03
2022-09-12T15:31:00.161Z,2.53
2022-09-12T15:33:27.831Z,2.60
2022-09-12T15:35:55.496Z,2.42
2022-09-12T15:38:26.586Z,3.63
2022-09-12T15:40:54.910Z,3.00
2022-09-12T15:43:23.078Z,2.40
2022-09-12T15:45:52.215Z,2.72
2022-09-12T15:48:21.008Z,2.85
2022-09-12T15:50:48.860Z,3.20
2022-09-12T15:53:17.243Z,2.40
2022-09-12T15:55:44.876Z,2.28
2022-09-12T15:58:12.802Z,2.33
2022-09-12T16:00:41.713Z,2.22
2022-09-12T16:03:29.469Z,2.95
2022-09-12T16:06:01.664Z,3.33
2022-09-12T16:08:31.486Z,3.47
2022-09-12T16:11:03.849Z,2.53
2022-09-12T16:13:46.062Z,3.28
2022-09-12T16:16:15.158Z,2.47
2022-09-12T16:18:46.125Z,4.50
2022-09-12T16:21:15.484Z,2.33
2022-09-12T16:23:44.473Z,2.97
2022-09-12T16:26:15.767Z,2.72
2022-09-12T16:29:12.361Z,3.25
2022-09-12T16:31:46.875Z,2.50
2022-09-12T16:34:35.427Z,2.55
2022-09-12T16:37:29.925Z,2.58
2022-09-12T16:40:21.706Z,2.30
2022-09-12T16:42:55.158Z,2.45
2022-09-12T16:45:22.763Z,2.25
2022-09-12T16:47:50.421Z,3.33
2022-09-12T16:50:18.025Z,2.50
2022-09-12T16:52:45.606Z,2.72
2022-09-12T16:55:15.621Z,3.65
2022-09-12T16:57:43.289Z,2.30
2022-09-12T17:00:11.529Z,4.72
2022-09-12T17:02:39.407Z,2.17
2022-09-12T17:05:47.352Z,2.92
2022-09-12T17:08:28.728Z,2.45
2022-09-12T17:11:04.422Z,2.70
2022-09-12T17:14:00.095Z,3.08
2022-09-12T17:16:21.935Z,2.72
2022-09-12T17:18:55.839Z,3.40
2022-09-12T17:21:23.847Z,2.97
2022-09-12T17:23:51.529Z,5.85
2022-09-12T17:26:42.767Z,3.47
2022-09-12T17:29:44.400Z,5.50
2022-09-12T17:32:17.656Z,3.33
2022-09-12T17:34:55.049Z,3.08
2022-09-12T17:37:22.888Z,2.33
2022-09-12T17:39:50.694Z,6.60
2022-09-12T17:42:19.135Z,2.28
2022-09-12T17:44:55.673Z,2.70
2022-09-12T17:47:23.321Z,4.57
2022-09-12T17:50:14.821Z,3.83
2022-09-12T17:52:51.345Z,3.60
2022-09-12T17:55:19.086Z,2.90
2022-09-12T17:57:46.865Z,2.53
2022-09-12T18:00:14.796Z,3.33
2022-09-12T18:02:43.247Z,2.47
2022-09-12T18:05:10.980Z,2.67
2022-09-12T18:07:43.465Z,3.47
2022-09-12T18:10:11.955Z,3.65
2022-09-12T18:12:39.858Z,2.97
2022-09-12T18:15:08.330Z,2.50
2022-09-12T18:17:36.037Z,4.72
2022-09-12T18:20:04.173Z,3.67
2022-09-12T18:22:31.783Z,2.65
2022-09-12T18:24:59.370Z,3.58
2022-09-12T18:27:27.088Z,2.92
2022-09-12T18:30:17.217Z,5.15
2022-09-12T18:32:42.234Z,3.72
2022-09-12T18:35:09.996Z,7.15
2022-09-12T18:37:37.857Z,3.90
2022-09-12T18:40:06.069Z,2.75
2022-09-12T18:42:34.020Z,2.58
2022-09-12T18:45:01.600Z,2.47
2022-09-12T18:47:29.503Z,3.50
2022-09-12T18:49:57.172Z,4.38
2022-09-12T18:52:25.037Z,3.83
2022-09-12T18:54:54.963Z,4.20
2022-09-12T18:57:24.418Z,3.30
2022-09-12T18:59:52.726Z,2.90
2022-09-12T19:02:20.380Z,2.55
2022-09-12T19:04:48.459Z,3.33
2022-09-12T19:07:17.520Z,3.28
2022-09-12T19:09:45.189Z,2.80
2022-09-12T19:12:12.842Z,3.40
2022-09-12T19:14:40.640Z,3.40
2022-09-12T19:17:09.452Z,4.47
2022-09-12T19:19:40.511Z,4.15
2022-09-12T19:22:08.466Z,3.63
2022-09-12T19:24:36.283Z,4.50
2022-09-12T19:27:04.371Z,2.70
2022-09-12T19:29:32.139Z,3.92
2022-09-12T19:31:59.777Z,4.45
2022-09-12T19:34:28.106Z,5.15
2022-09-12T19:37:27.265Z,4.93
2022-09-12T19:40:01.222Z,3.90
2022-09-12T19:42:46.469Z,4.30
2022-09-12T19:45:36.922Z,3.28
2022-09-12T19:48:29.780Z,3.88
2022-09-12T19:51:02.774Z,3.53
2022-09-12T19:53:30.697Z,5.03
2022-09-12T19:56:00.115Z,2.95
2022-09-12T19:58:53.488Z,4.80
2022-09-12T20:01:29.950Z,3.22
2022-09-12T20:04:19.223Z,2.75
2022-09-12T20:07:21.957Z,5.30
2022-09-12T20:10:18.922Z,3.60
2022-09-12T20:12:46.992Z,4.95
2022-09-12T20:15:14.653Z,4.78
2022-09-12T20:17:42.695Z,4.10
2022-09-12T20:20:10.743Z,6.43
2022-09-12T20:22:40.167Z,3.28
2022-09-12T20:25:08.666Z,3.15
2022-09-12T20:27:36.322Z,5.22
2022-09-12T20:30:04.847Z,3.20
2022-09-12T20:32:32.514Z,3.30
2022-09-12T20:35:00.239Z,3.05
2022-09-12T20:37:30.052Z,3.05
2022-09-12T20:39:57.621Z,3.40
2022-09-12T20:42:25.335Z,3.13
2022-09-12T20:45:04.818Z,3.53
2022-09-12T20:47:35.459Z,4.82
2022-09-12T20:50:03.238Z,3.53
2022-09-12T20:52:31.434Z,3.67
2022-09-12T20:54:59.086Z,5.32
2022-09-12T20:57:28.667Z,3.50
2022-09-12T20:59:56.291Z,4.05
2022-09-12T21:02:24.286Z,3.10
2022-09-12T21:04:52.397Z,3.85
2022-09-12T21:07:19.950Z,3.40
2022-09-12T21:09:47.590Z,5.68
2022-09-12T21:12:15.212Z,5.37
2022-09-12T21:14:42.882Z,3.30
2022-09-12T21:17:10.527Z,3.20
2022-09-12T21:19:38.154Z,6.20
2022-09-12T21:22:20.650Z,3.37
2022-09-12T21:25:04.559Z,3.23
2022-09-12T21:27:39.610Z,4.57
2022-09-12T21:30:09.965Z,4.67
2022-09-12T21:32:38.847Z,3.50
2022-09-12T21:35:06.972Z,3.40
2022-09-12T21:37:35.017Z,3.70
2022-09-12T21:40:03.212Z,3.50
2022-09-12T21:42:44.116Z,5.57
2022-09-12T21:45:16.474Z,4.33
2022-09-12T21:47:49.170Z,4.50
2022-09-12T21:50:24.506Z,3.47
2022-09-12T21:53:25.847Z,4.63
2022-09-12T21:56:09.339Z,4.67
2022-09-12T21:58:48.160Z,5.43
2022-09-12T22:01:38.452Z,3.73
2022-09-12T22:04:20.968Z,3.50
2022-09-12T22:06:58.277Z,4.40
2022-09-12T22:09:45.886Z,3.72
2022-09-12T22:12:13.757Z,3.33
2022-09-12T22:14:42.267Z,4.90
2022-09-12T22:17:12.694Z,3.53
2022-09-12T22:19:40.778Z,5.90
2022-09-12T22:22:27.266Z,3.27
2022-09-12T22:24:54.894Z,4.93
2022-09-12T22:27:22.771Z,3.43
2022-09-12T22:29:51.979Z,3.63
2022-09-12T22:32:20.338Z,3.50
2022-09-12T22:34:48.067Z,3.70
2022-09-12T22:37:15.905Z,3.37
2022-09-12T22:39:43.541Z,3.53
2022-09-12T22:42:11.502Z,3.67
2022-09-12T22:44:39.312Z,4.30
2022-09-12T22:47:06.893Z,3.70
2022-09-12T22:49:34.769Z,4.93
2022-09-12T22:52:02.710Z,3.53
2022-09-12T22:54:30.431Z,3.90
2022-09-12T22:56:58.037Z,3.07
2022-09-12T22:59:25.678Z,3.37
2022-09-12T23:01:53.414Z,3.50
2022-09-12T23:04:21.045Z,3.70
2022-09-12T23:06:49.113Z,3.80
2022-09-12T23:09:16.784Z,4.07
2022-09-12T23:11:44.474Z,4.33
2022-09-12T23:14:12.166Z,3.53
2022-09-12T23:16:40.002Z,3.57
2022-09-12T23:19:07.650Z,3.57
2022-09-12T23:21:35.460Z,3.70
2022-09-12T23:24:03.674Z,3.90
2022-09-12T23:26:31.392Z,3.67
2022-09-12T23:29:02.000Z,3.47
2022-09-12T23:31:31.699Z,4.93
2022-09-12T23:34:02.122Z,5.20
2022-09-12T23:36:30.257Z,4.07
2022-09-12T23:38:58.390Z,4.47
2022-09-12T23:41:26.154Z,4.13
2022-09-12T23:43:54.119Z,4.03
2022-09-12T23:46:22.339Z,3.27
2022-09-12T23:48:50.585Z,5.27
2022-09-12T23:51:18.375Z,3.90
2022-09-12T23:53:46.069Z,3.27
2022-09-12T23:56:13.750Z,4.77
2022-09-12T23:58:41.702Z,4.77
